createdAt,value
2023-05-07T00:01:27.179Z,17.00
2023-05-07T00:03:54.003Z,17.00
2023-05-07T00:06:20.808Z,17.00
2023-05-07T00:08:47.398Z,16.90
2023-05-07T00:11:13.980Z,16.90
2023-05-07T00:13:40.784Z,16.90
2023-05-07T00:16:07.516Z,16.90
2023-05-07T00:18:34.163Z,16.90
2023-05-07T00:21:00.795Z,16.90
2023-05-07T00:23:27.448Z,16.90
2023-05-07T00:25:54.101Z,16.80
2023-05-07T00:28:20.636Z,16.80
2023-05-07T00:30:47.234Z,16.80
2023-05-07T00:33:13.883Z,16.80
2023-05-07T00:35:40.731Z,16.80
2023-05-07T00:38:07.287Z,16.80
2023-05-07T00:40:33.930Z,16.80
2023-05-07T00:43:01.066Z,16.70
2023-05-07T00:45:29.222Z,16.70
2023-05-07T00:47:58.410Z,16.70
2023-05-07T00:50:25.304Z,16.70
2023-05-07T00:52:52.115Z,16.70
2023-05-07T00:55:19.296Z,16.70
2023-05-07T00:57:46.431Z,16.60
2023-05-07T01:00:14.543Z,16.60
2023-05-07T01:02:41.899Z,16.60
2023-05-07T01:05:12.116Z,16.60
2023-05-07T01:07:41.707Z,16.60
2023-05-07T01:10:09.817Z,16.60
2023-05-07T01:12:38.466Z,16.50
2023-05-07T01:15:07.473Z,16.50
2023-05-07T01:17:39.171Z,16.50
2023-05-07T01:20:08.142Z,16.50
2023-05-07T01:22:39.606Z,16.50
2023-05-07T01:25:08.324Z,16.50
2023-05-07T01:27:36.477Z,16.40
2023-05-07T01:30:03.382Z,16.40
2023-05-07T01:32:38.991Z,16.40
2023-05-07T01:35:08.551Z,16.40
2023-05-07T01:37:35.293Z,16.40
2023-05-07T01:40:03.515Z,16.40
2023-05-07T01:42:30.864Z,16.40
2023-05-07T01:44:57.597Z,16.30
2023-05-07T01:47:25.718Z,16.30
2023-05-07T01:49:52.533Z,16.30
2023-05-07T01:52:19.095Z,16.30
2023-05-07T01:54:45.684Z,16.30
2023-05-07T01:57:12.294Z,16.20
2023-05-07T01:59:38.858Z,16.20
2023-05-07T02:02:05.551Z,16.20
2023-05-07T02:04:32.485Z,16.20
2023-05-07T02:06:59.164Z,16.20
2023-05-07T02:09:26.458Z,16.20
2023-05-07T02:11:53.047Z,16.20
2023-05-07T02:14:21.214Z,16.10
2023-05-07T02:16:48.040Z,16.10
2023-05-07T02:19:14.713Z,16.10
2023-05-07T02:21:41.420Z,16.10
2023-05-07T02:24:08.104Z,16.10
2023-05-07T02:26:35.274Z,16.10
2023-05-07T02:29:01.959Z,16.00
2023-05-07T02:31:28.566Z,16.00
2023-05-07T02:33:55.206Z,16.00
2023-05-07T02:36:21.833Z,16.00
2023-05-07T02:38:48.508Z,16.00
2023-05-07T02:41:15.154Z,16.00
2023-05-07T02:43:41.734Z,15.90
2023-05-07T02:46:09.918Z,15.90
2023-05-07T02:48:36.830Z,15.90
2023-05-07T02:51:04.246Z,15.90
2023-05-07T02:53:31.000Z,15.90
2023-05-07T02:55:59.109Z,15.90
2023-05-07T02:58:26.314Z,15.80
2023-05-07T03:00:53.353Z,15.80
2023-05-07T03:03:20.082Z,15.80
2023-05-07T03:05:46.772Z,15.80
2023-05-07T03:08:13.486Z,15.80
2023-05-07T03:10:40.174Z,15.80
2023-05-07T03:13:06.955Z,15.80
2023-05-07T03:15:33.797Z,15.80
2023-05-07T03:18:00.494Z,15.80
2023-05-07T03:20:27.275Z,15.80
2023-05-07T03:22:53.930Z,15.80
2023-05-07T03:25:20.479Z,15.70
2023-05-07T03:27:47.099Z,15.70
2023-05-07T03:30:14.060Z,15.70
2023-05-07T03:32:41.111Z,15.70
2023-05-07T03:35:08.617Z,15.70
2023-05-07T03:37:35.281Z,15.70
2023-05-07T03:40:01.892Z,15.70
2023-05-07T03:42:29.772Z,15.70
2023-05-07T03:44:56.858Z,15.70
2023-05-07T03:47:23.504Z,15.60
2023-05-07T03:49:51.404Z,15.60
2023-05-07T03:52:23.438Z,15.60
2023-05-07T03:54:49.906Z,15.60
2023-05-07T03:57:16.786Z,15.60
2023-05-07T03:59:43.522Z,15.60
2023-05-07T04:02:10.240Z,15.60
2023-05-07T04:04:36.888Z,15.60
2023-05-07T04:07:04.156Z,15.60
2023-05-07T04:09:30.831Z,15.60
2023-05-07T04:11:57.407Z,15.60
2023-05-07T04:14:24.098Z,15.60
2023-05-07T04:16:50.877Z,15.50
2023-05-07T04:19:17.928Z,15.50
2023-05-07T04:21:44.550Z,15.50
2023-05-07T04:24:11.150Z,15.50
2023-05-07T04:26:37.749Z,15.50
2023-05-07T04:29:04.756Z,15.50
2023-05-07T04:31:31.666Z,15.50
2023-05-07T04:33:58.520Z,15.50
2023-05-07T04:36:28.591Z,15.50
2023-05-07T04:38:55.716Z,15.50
2023-05-07T04:41:22.437Z,15.50
2023-05-07T04:43:49.121Z,15.50
2023-05-07T04:46:15.863Z,15.50
2023-05-07T04:48:42.464Z,15.50
2023-05-07T04:51:09.092Z,15.50
2023-05-07T04:53:35.789Z,15.50
2023-05-07T04:56:02.429Z,15.50
2023-05-07T04:58:32.645Z,15.50
2023-05-07T05:01:00.434Z,15.50
2023-05-07T05:03:27.373Z,15.50
2023-05-07T05:05:54.178Z,15.50
2023-05-07T05:08:21.024Z,15.50
2023-05-07T05:10:49.722Z,15.50
2023-05-07T05:13:16.633Z,15.50
2023-05-07T05:15:43.492Z,15.50
2023-05-07T05:18:10.141Z,15.50
2023-05-07T05:20:36.977Z,15.50
2023-05-07T05:23:03.821Z,15.50
2023-05-07T05:25:30.690Z,15.50
2023-05-07T05:27:57.666Z,15.50
2023-05-07T05:30:24.457Z,15.50
2023-05-07T05:32:51.185Z,15.50
2023-05-07T05:35:17.964Z,15.50
2023-05-07T05:37:44.697Z,15.60
2023-05-07T05:40:12.072Z,15.60
2023-05-07T05:42:38.801Z,15.60
2023-05-07T05:45:06.418Z,15.60
2023-05-07T05:47:33.272Z,15.60
2023-05-07T05:49:59.970Z,15.60
2023-05-07T05:52:26.559Z,15.60
2023-05-07T05:54:53.181Z,15.60
2023-05-07T05:57:19.957Z,15.60
2023-05-07T05:59:48.469Z,15.60
2023-05-07T06:02:15.336Z,15.60
2023-05-07T06:04:43.564Z,15.60
2023-05-07T06:07:10.465Z,15.60
2023-05-07T06:09:37.022Z,15.60
2023-05-07T06:12:03.726Z,15.60
2023-05-07T06:14:30.710Z,15.60
2023-05-07T06:16:59.627Z,15.60
2023-05-07T06:19:27.734Z,15.60
2023-05-07T06:21:54.369Z,15.60
2023-05-07T06:24:21.071Z,15.60
2023-05-07T06:26:47.921Z,15.60
2023-05-07T06:29:14.589Z,15.70
2023-05-07T06:31:41.478Z,15.70
2023-05-07T06:34:09.940Z,15.70
2023-05-07T06:36:36.622Z,15.70
2023-05-07T06:39:03.238Z,15.70
2023-05-07T06:41:36.784Z,15.70
2023-05-07T06:44:06.209Z,15.70
2023-05-07T06:46:32.912Z,15.70
2023-05-07T06:48:59.535Z,15.80
2023-05-07T06:51:26.515Z,15.80
2023-05-07T06:53:53.246Z,15.80
2023-05-07T06:56:20.065Z,15.80
2023-05-07T06:58:46.767Z,15.80
2023-05-07T07:01:15.723Z,15.80
2023-05-07T07:03:42.457Z,15.80
2023-05-07T07:06:09.620Z,15.90
2023-05-07T07:08:36.231Z,15.90
2023-05-07T07:11:02.862Z,15.80
2023-05-07T07:13:29.944Z,15.80
2023-05-07T07:15:56.728Z,15.80
2023-05-07T07:18:23.401Z,15.90
2023-05-07T07:20:50.192Z,15.90
2023-05-07T07:23:16.771Z,15.90
2023-05-07T07:25:43.400Z,15.90
2023-05-07T07:28:10.044Z,15.90
2023-05-07T07:30:36.667Z,15.90
2023-05-07T07:33:04.412Z,15.90
2023-05-07T07:35:31.351Z,15.90
2023-05-07T07:37:58.284Z,15.90
2023-05-07T07:40:25.973Z,15.90
2023-05-07T07:42:53.814Z,15.90
2023-05-07T07:45:20.531Z,16.00
2023-05-07T07:47:47.247Z,16.00
2023-05-07T07:50:21.928Z,15.90
2023-05-07T07:52:58.925Z,16.00
2023-05-07T07:55:25.767Z,16.10
2023-05-07T07:57:52.362Z,16.10
2023-05-07T08:00:20.277Z,16.20
2023-05-07T08:02:47.174Z,16.20
2023-05-07T08:05:13.978Z,16.20
2023-05-07T08:07:40.594Z,16.30
2023-05-07T08:10:07.717Z,16.40
2023-05-07T08:12:34.345Z,16.50
2023-05-07T08:15:00.966Z,16.50
2023-05-07T08:17:27.621Z,16.60
2023-05-07T08:19:54.218Z,16.60
2023-05-07T08:22:20.787Z,16.60
2023-05-07T08:24:47.509Z,16.60
2023-05-07T08:27:14.093Z,16.60
2023-05-07T08:29:40.667Z,16.60
2023-05-07T08:32:07.274Z,16.60
2023-05-07T08:34:33.832Z,16.60
2023-05-07T08:37:00.474Z,16.70
2023-05-07T08:39:27.026Z,16.70
2023-05-07T08:41:57.212Z,16.70
2023-05-07T08:44:27.462Z,16.80
2023-05-07T08:46:55.468Z,16.90
2023-05-07T08:49:22.224Z,16.90
2023-05-07T08:51:49.225Z,16.90
2023-05-07T08:54:20.716Z,16.90
2023-05-07T08:56:47.571Z,17.00
2023-05-07T08:59:14.434Z,17.00
2023-05-07T09:01:41.158Z,17.00
2023-05-07T09:04:08.256Z,17.00
2023-05-07T09:06:35.708Z,17.10
2023-05-07T09:09:02.575Z,17.10
2023-05-07T09:11:29.193Z,17.10
2023-05-07T09:13:57.392Z,17.20
2023-05-07T09:16:27.346Z,17.20
2023-05-07T09:18:55.052Z,17.10
2023-05-07T09:21:23.799Z,17.10
2023-05-07T09:23:55.334Z,17.20
2023-05-07T09:26:25.887Z,17.20
2023-05-07T09:28:53.091Z,17.20
2023-05-07T09:31:21.395Z,17.20
2023-05-07T09:33:48.471Z,17.20
2023-05-07T09:36:15.185Z,17.20
2023-05-07T09:38:43.042Z,17.20
2023-05-07T09:41:11.651Z,17.20
2023-05-07T09:43:39.839Z,17.30
2023-05-07T09:46:14.411Z,17.30
2023-05-07T09:48:43.907Z,17.20
2023-05-07T09:51:23.101Z,17.10
2023-05-07T09:53:51.671Z,17.20
2023-05-07T09:56:19.583Z,17.20
2023-05-07T09:58:47.753Z,17.20
2023-05-07T10:01:15.030Z,17.10
2023-05-07T10:03:43.568Z,17.20
2023-05-07T10:06:11.687Z,17.20
2023-05-07T10:08:38.817Z,17.30
2023-05-07T10:11:10.129Z,17.20
2023-05-07T10:13:38.917Z,17.30
2023-05-07T10:16:06.541Z,17.30
2023-05-07T10:18:34.212Z,17.20
2023-05-07T10:21:18.417Z,17.20
2023-05-07T10:23:54.606Z,17.30
2023-05-07T10:26:23.324Z,17.30
2023-05-07T10:28:58.906Z,17.20
2023-05-07T10:31:44.510Z,17.30
2023-05-07T10:34:14.232Z,17.30
2023-05-07T10:36:41.138Z,17.30
2023-05-07T10:39:07.949Z,17.20
2023-05-07T10:41:34.618Z,17.30
2023-05-07T10:44:03.200Z,17.40
2023-05-07T10:46:30.509Z,17.30
2023-05-07T10:49:03.868Z,17.30
2023-05-07T10:51:32.434Z,17.40
2023-05-07T10:54:14.538Z,17.40
2023-05-07T10:56:44.678Z,17.50
2023-05-07T10:59:31.731Z,17.40
2023-05-07T11:02:00.489Z,17.50
2023-05-07T11:04:32.515Z,17.50
2023-05-07T11:07:25.797Z,17.60
2023-05-07T11:09:52.350Z,17.70
2023-05-07T11:12:37.411Z,17.60
2023-05-07T11:15:08.156Z,17.60
2023-05-07T11:17:37.431Z,17.80
2023-05-07T11:20:05.684Z,17.90
2023-05-07T11:22:32.679Z,18.00
2023-05-07T11:25:01.278Z,18.10
2023-05-07T11:27:28.373Z,18.10
2023-05-07T11:29:55.050Z,18.10
2023-05-07T11:32:25.606Z,18.20
2023-05-07T11:34:57.271Z,18.30
2023-05-07T11:37:25.469Z,18.30
2023-05-07T11:39:59.212Z,18.40
2023-05-07T11:42:39.897Z,18.60
2023-05-07T11:45:08.551Z,18.60
2023-05-07T11:47:35.587Z,18.60
2023-05-07T11:50:08.655Z,18.70
2023-05-07T11:52:36.156Z,18.80
2023-05-07T11:55:05.543Z,18.80
2023-05-07T11:57:34.335Z,18.90
2023-05-07T12:00:03.373Z,18.90
2023-05-07T12:02:30.034Z,19.00
2023-05-07T12:04:56.911Z,19.00
2023-05-07T12:07:24.956Z,19.10
2023-05-07T12:09:51.805Z,19.10
2023-05-07T12:12:18.624Z,19.10
2023-05-07T12:14:47.149Z,19.00
2023-05-07T12:17:15.450Z,19.10
2023-05-07T12:19:45.827Z,19.20
2023-05-07T12:22:13.655Z,19.20
2023-05-07T12:24:51.594Z,19.20
2023-05-07T12:27:18.738Z,19.20
2023-05-07T12:29:48.779Z,19.40
2023-05-07T12:32:19.602Z,19.50
2023-05-07T12:34:46.704Z,19.70
2023-05-07T12:37:14.049Z,19.80
2023-05-07T12:39:51.593Z,19.90
2023-05-07T12:42:24.591Z,19.90
2023-05-07T12:44:51.694Z,20.10
2023-05-07T12:47:18.240Z,20.10
2023-05-07T12:49:46.825Z,20.20
2023-05-07T12:52:14.158Z,20.20
2023-05-07T12:54:40.904Z,20.30
2023-05-07T12:57:09.722Z,20.30
2023-05-07T12:59:38.206Z,20.40
2023-05-07T13:02:06.315Z,20.60
2023-05-07T13:04:33.318Z,20.80
2023-05-07T13:07:01.358Z,20.90
2023-05-07T13:09:29.740Z,21.00
2023-05-07T13:11:56.543Z,21.10
2023-05-07T13:14:23.225Z,21.10
2023-05-07T13:16:50.472Z,21.10
2023-05-07T13:19:17.338Z,21.00
2023-05-07T13:21:44.120Z,20.90
2023-05-07T13:24:10.964Z,20.90
2023-05-07T13:26:37.550Z,20.90
2023-05-07T13:29:04.166Z,20.90
2023-05-07T13:31:31.118Z,20.70
2023-05-07T13:33:57.899Z,20.70
2023-05-07T13:36:24.550Z,20.70
2023-05-07T13:38:52.809Z,20.60
2023-05-07T13:41:19.576Z,20.50
2023-05-07T13:43:46.172Z,20.70
2023-05-07T13:46:12.960Z,20.70
2023-05-07T13:48:39.584Z,20.60
2023-05-07T13:51:06.315Z,20.70
2023-05-07T13:53:32.962Z,20.80
2023-05-07T13:55:59.585Z,20.70
2023-05-07T13:58:26.342Z,20.70
2023-05-07T14:00:53.109Z,20.70
2023-05-07T14:03:20.944Z,20.60
2023-05-07T14:05:50.250Z,20.70
2023-05-07T14:08:19.635Z,20.60
2023-05-07T14:10:47.218Z,20.60
2023-05-07T14:13:13.963Z,20.70
2023-05-07T14:15:41.414Z,20.60
2023-05-07T14:18:08.146Z,20.60
2023-05-07T14:20:37.707Z,20.60
2023-05-07T14:23:04.513Z,20.60
2023-05-07T14:25:31.261Z,20.70
2023-05-07T14:27:57.928Z,20.80
2023-05-07T14:30:25.594Z,20.70
2023-05-07T14:32:52.464Z,20.60
2023-05-07T14:35:19.135Z,20.60
2023-05-07T14:37:45.824Z,20.80
2023-05-07T14:40:12.916Z,21.00
2023-05-07T14:42:39.858Z,20.80
2023-05-07T14:45:07.123Z,20.80
2023-05-07T14:47:33.793Z,20.90
2023-05-07T14:50:02.206Z,21.20
2023-05-07T14:52:29.331Z,21.40
2023-05-07T14:54:55.982Z,21.40
2023-05-07T14:57:22.806Z,21.50
2023-05-07T14:59:50.226Z,21.70
2023-05-07T15:02:20.959Z,21.90
2023-05-07T15:04:48.312Z,21.60
2023-05-07T15:07:16.271Z,21.60
2023-05-07T15:09:44.418Z,21.70
2023-05-07T15:12:12.598Z,21.70
2023-05-07T15:14:40.296Z,22.00
2023-05-07T15:17:07.219Z,22.20
2023-05-07T15:19:34.093Z,22.40
2023-05-07T15:22:04.065Z,22.50
2023-05-07T15:24:31.916Z,22.50
2023-05-07T15:27:03.751Z,22.60
2023-05-07T15:29:30.458Z,22.70
2023-05-07T15:31:58.139Z,22.70
2023-05-07T15:34:25.216Z,22.70
2023-05-07T15:36:51.879Z,22.70
2023-05-07T15:39:18.607Z,22.80
2023-05-07T15:41:45.245Z,22.80
2023-05-07T15:44:11.880Z,22.90
2023-05-07T15:46:38.621Z,22.90
2023-05-07T15:49:05.681Z,22.90
2023-05-07T15:51:34.985Z,22.90
2023-05-07T15:54:01.605Z,22.90
2023-05-07T15:56:28.209Z,23.00
2023-05-07T15:58:54.832Z,23.00
2023-05-07T16:01:21.868Z,23.00
2023-05-07T16:03:49.459Z,23.00
2023-05-07T16:06:16.531Z,23.10
2023-05-07T16:08:44.231Z,23.10
2023-05-07T16:11:11.045Z,23.10
2023-05-07T16:13:37.805Z,23.10
2023-05-07T16:16:05.510Z,23.10
2023-05-07T16:18:33.484Z,23.10
2023-05-07T16:21:00.988Z,23.10
2023-05-07T16:23:27.717Z,23.10
2023-05-07T16:25:54.363Z,23.10
2023-05-07T16:28:21.836Z,23.10
2023-05-07T16:30:50.475Z,23.10
2023-05-07T16:33:17.188Z,23.00
2023-05-07T16:35:47.654Z,23.00
2023-05-07T16:38:14.367Z,23.00
2023-05-07T16:40:41.107Z,23.00
2023-05-07T16:43:08.141Z,23.00
2023-05-07T16:45:34.742Z,23.00
2023-05-07T16:48:03.204Z,23.00
2023-05-07T16:50:30.250Z,22.90
2023-05-07T16:52:57.075Z,22.90
2023-05-07T16:55:23.730Z,22.90
2023-05-07T16:57:50.679Z,22.80
2023-05-07T17:00:18.128Z,22.60
2023-05-07T17:02:45.892Z,22.40
2023-05-07T17:05:12.931Z,22.40
2023-05-07T17:07:39.879Z,22.50
2023-05-07T17:10:06.987Z,22.40
2023-05-07T17:12:35.880Z,22.40
2023-05-07T17:15:03.422Z,22.20
2023-05-07T17:17:30.204Z,22.20
2023-05-07T17:19:57.384Z,22.10
2023-05-07T17:22:25.241Z,22.10
2023-05-07T17:24:52.435Z,22.10
2023-05-07T17:27:19.312Z,22.10
2023-05-07T17:29:46.013Z,22.00
2023-05-07T17:32:12.756Z,21.90
2023-05-07T17:34:39.504Z,21.90
2023-05-07T17:37:06.136Z,21.80
2023-05-07T17:39:32.804Z,21.70
2023-05-07T17:41:59.371Z,21.70
2023-05-07T17:44:25.978Z,21.60
2023-05-07T17:46:52.569Z,21.50
2023-05-07T17:49:19.223Z,21.50
2023-05-07T17:51:53.230Z,21.40
2023-05-07T17:54:21.546Z,21.40
2023-05-07T17:56:48.183Z,21.20
2023-05-07T17:59:14.964Z,21.10
2023-05-07T18:01:42.431Z,21.10
2023-05-07T18:04:09.159Z,21.00
2023-05-07T18:06:36.426Z,20.90
2023-05-07T18:09:03.125Z,20.80
2023-05-07T18:11:32.328Z,20.70
2023-05-07T18:13:59.313Z,20.70
2023-05-07T18:16:26.486Z,20.70
2023-05-07T18:18:53.243Z,20.60
2023-05-07T18:21:20.023Z,20.50
2023-05-07T18:23:51.396Z,20.30
2023-05-07T18:26:18.300Z,20.40
2023-05-07T18:28:46.179Z,20.60
2023-05-07T18:31:12.964Z,20.70
2023-05-07T18:33:39.623Z,20.70
2023-05-07T18:36:06.796Z,20.60
2023-05-07T18:38:34.080Z,20.60
2023-05-07T18:41:04.373Z,20.60
2023-05-07T18:43:31.231Z,20.50
2023-05-07T18:45:58.349Z,20.50
2023-05-07T18:48:25.293Z,20.50
2023-05-07T18:50:52.585Z,20.50
2023-05-07T18:53:19.350Z,20.40
2023-05-07T18:55:52.552Z,20.40
2023-05-07T18:58:20.281Z,20.30
2023-05-07T19:00:47.965Z,20.30
2023-05-07T19:03:15.999Z,20.30
2023-05-07T19:05:43.500Z,20.30
2023-05-07T19:08:10.497Z,20.20
2023-05-07T19:10:37.543Z,20.20
2023-05-07T19:13:05.599Z,20.20
2023-05-07T19:15:32.360Z,20.10
2023-05-07T19:17:59.150Z,20.10
2023-05-07T19:20:26.018Z,20.00
2023-05-07T19:22:53.135Z,20.00
2023-05-07T19:25:19.864Z,19.90
2023-05-07T19:27:48.161Z,19.90
2023-05-07T19:30:14.900Z,19.90
2023-05-07T19:32:41.626Z,19.80
2023-05-07T19:35:08.870Z,19.80
2023-05-07T19:37:35.548Z,19.70
2023-05-07T19:40:06.602Z,19.70
2023-05-07T19:42:33.386Z,19.60
2023-05-07T19:45:00.208Z,19.60
2023-05-07T19:47:26.993Z,19.60
2023-05-07T19:49:53.746Z,19.50
2023-05-07T19:52:20.333Z,19.50
2023-05-07T19:54:47.060Z,19.40
2023-05-07T19:57:14.375Z,19.40
2023-05-07T19:59:41.265Z,19.30
2023-05-07T20:02:08.027Z,19.30
2023-05-07T20:04:38.124Z,19.30
2023-05-07T20:07:05.907Z,19.20
2023-05-07T20:09:32.651Z,19.20
2023-05-07T20:11:59.458Z,19.10
2023-05-07T20:14:27.398Z,19.10
2023-05-07T20:16:54.343Z,19.10
2023-05-07T20:19:21.036Z,19.10
2023-05-07T20:21:47.674Z,19.00
2023-05-07T20:24:19.223Z,19.00
2023-05-07T20:26:54.009Z,18.90
2023-05-07T20:29:22.534Z,18.90
2023-05-07T20:31:49.294Z,18.90
2023-05-07T20:34:16.006Z,18.80
2023-05-07T20:36:42.693Z,18.80
2023-05-07T20:39:09.651Z,18.80
2023-05-07T20:41:36.248Z,18.70
2023-05-07T20:44:02.817Z,18.70
2023-05-07T20:46:30.195Z,18.70
2023-05-07T20:48:57.104Z,18.60
2023-05-07T20:51:23.812Z,18.60
2023-05-07T20:53:50.535Z,18.60
2023-05-07T20:56:20.000Z,18.50
2023-05-07T20:58:46.719Z,18.50
2023-05-07T21:01:13.514Z,18.50
2023-05-07T21:03:40.536Z,18.50
2023-05-07T21:06:07.397Z,18.40
2023-05-07T21:08:34.309Z,18.40
2023-05-07T21:11:01.526Z,18.40
2023-05-07T21:13:28.770Z,18.40
2023-05-07T21:15:55.653Z,18.30
2023-05-07T21:18:22.374Z,18.30
2023-05-07T21:20:49.257Z,18.30
2023-05-07T21:23:16.052Z,18.30
2023-05-07T21:25:47.263Z,18.20
2023-05-07T21:28:14.467Z,18.20
2023-05-07T21:30:41.199Z,18.20
2023-05-07T21:33:08.800Z,18.20
2023-05-07T21:35:36.472Z,18.10
2023-05-07T21:38:03.649Z,18.10
2023-05-07T21:40:30.704Z,18.10
2023-05-07T21:43:00.042Z,18.10
2023-05-07T21:45:27.318Z,18.10
2023-05-07T21:47:54.119Z,18.00
2023-05-07T21:50:22.144Z,18.00
2023-05-07T21:52:49.529Z,18.00
2023-05-07T21:55:18.202Z,18.00
2023-05-07T21:57:53.769Z,17.90
2023-05-07T22:00:29.555Z,17.90
2023-05-07T22:02:56.532Z,17.90
2023-05-07T22:05:23.478Z,17.90
2023-05-07T22:07:50.200Z,17.80
2023-05-07T22:10:21.851Z,17.80
2023-05-07T22:12:48.574Z,17.80
2023-05-07T22:15:15.639Z,17.80
2023-05-07T22:17:42.516Z,17.70
2023-05-07T22:20:10.325Z,17.70
2023-05-07T22:22:57.695Z,17.70
2023-05-07T22:25:25.149Z,17.70
2023-05-07T22:27:52.078Z,17.70
2023-05-07T22:30:19.119Z,17.60
2023-05-07T22:32:46.022Z,17.60
2023-05-07T22:35:12.809Z,17.60
2023-05-07T22:37:39.625Z,17.60
2023-05-07T22:40:07.105Z,17.60
2023-05-07T22:42:33.885Z,17.60
2023-05-07T22:45:00.966Z,17.50
2023-05-07T22:47:33.671Z,17.50
2023-05-07T22:50:01.079Z,17.50
2023-05-07T22:52:27.757Z,17.40
2023-05-07T22:54:54.485Z,17.40
2023-05-07T22:57:21.261Z,17.40
2023-05-07T22:59:47.901Z,17.40
2023-05-07T23:02:14.639Z,17.40
2023-05-07T23:04:41.366Z,17.30
2023-05-07T23:07:08.009Z,17.30
2023-05-07T23:09:34.707Z,17.30
2023-05-07T23:12:01.404Z,17.30
2023-05-07T23:14:28.060Z,17.30
2023-05-07T23:16:54.910Z,17.30
2023-05-07T23:19:21.777Z,17.20
2023-05-07T23:21:49.141Z,17.20
2023-05-07T23:24:16.441Z,17.20
2023-05-07T23:26:43.014Z,17.20
2023-05-07T23:29:09.704Z,17.20
2023-05-07T23:31:36.527Z,17.20
2023-05-07T23:34:03.465Z,17.10
2023-05-07T23:36:30.224Z,17.10
2023-05-07T23:38:56.928Z,17.10
2023-05-07T23:41:23.625Z,17.10
2023-05-07T23:43:50.511Z,17.00
2023-05-07T23:46:17.172Z,17.00
2023-05-07T23:48:43.792Z,17.00
2023-05-07T23:51:10.530Z,17.00
2023-05-07T23:53:37.321Z,17.00
2023-05-07T23:56:04.290Z,17.00
2023-05-07T23:58:31.135Z,16.90
